sensor_id;sensor_type;location;lat;lon;timestamp;P1;durP1;ratioP1;P2;durP2;ratioP2
53642;SDS011;39546;45.534;12.048;2022-11-04T00:04:52;51.85;;;31.45;;
53642;SDS011;39546;45.534;12.048;2022-11-04T00:10:55;44.65;;;35.10;;
53642;SDS011;39546;45.534;12.048;2022-11-04T00:17:17;47.40;;;31.95;;
53642;SDS011;39546;45.534;12.048;2022-11-04T00:23:19;81.43;;;54.25;;
53642;SDS011;39546;45.534;12.048;2022-11-04T00:29:40;77.62;;;54.90;;
53642;SDS011;39546;45.534;12.048;2022-11-04T00:35:55;101.47;;;69.70;;
53642;SDS011;39546;45.534;12.048;2022-11-04T00:41:57;89.60;;;65.82;;
53642;SDS011;39546;45.534;12.048;2022-11-04T00:47:59;99.47;;;67.03;;
53642;SDS011;39546;45.534;12.048;2022-11-04T00:54:02;76.97;;;52.95;;
53642;SDS011;39546;45.534;12.048;2022-11-04T01:00:04;50.58;;;38.30;;
53642;SDS011;39546;45.534;12.048;2022-11-04T01:06:27;76.40;;;53.95;;
53642;SDS011;39546;45.534;12.048;2022-11-04T01:12:29;57.28;;;39.15;;
53642;SDS011;39546;45.534;12.048;2022-11-04T01:18:31;75.97;;;57.10;;
53642;SDS011;39546;45.534;12.048;2022-11-04T01:24:34;88.78;;;66.00;;
53642;SDS011;39546;45.534;12.048;2022-11-04T01:30:39;51.05;;;37.03;;
53642;SDS011;39546;45.534;12.048;2022-11-04T01:37:13;83.60;;;61.75;;
53642;SDS011;39546;45.534;12.048;2022-11-04T01:43:18;49.15;;;33.40;;
53642;SDS011;39546;45.534;12.048;2022-11-04T01:55:35;61.53;;;42.15;;
53642;SDS011;39546;45.534;12.048;2022-11-04T02:01:41;43.78;;;32.10;;
53642;SDS011;39546;45.534;12.048;2022-11-04T02:07:47;42.80;;;30.12;;
53642;SDS011;39546;45.534;12.048;2022-11-04T02:13:51;39.75;;;32.40;;
53642;SDS011;39546;45.534;12.048;2022-11-04T02:32:49;44.17;;;31.40;;
53642;SDS011;39546;45.534;12.048;2022-11-04T02:46:27;28.30;;;20.13;;
53642;SDS011;39546;45.534;12.048;2022-11-04T02:52:44;32.60;;;21.98;;
53642;SDS011;39546;45.534;12.048;2022-11-04T02:59:06;22.13;;;13.80;;
53642;SDS011;39546;45.534;12.048;2022-11-04T03:05:16;17.27;;;11.73;;
53642;SDS011;39546;45.534;12.048;2022-11-04T03:11:22;20.30;;;12.00;;
53642;SDS011;39546;45.534;12.048;2022-11-04T03:17:28;20.30;;;10.63;;
53642;SDS011;39546;45.534;12.048;2022-11-04T03:23:36;10.82;;;7.12;;
53642;SDS011;39546;45.534;12.048;2022-11-04T03:29:44;10.93;;;7.00;;
53642;SDS011;39546;45.534;12.048;2022-11-04T03:35:47;18.05;;;8.15;;
53642;SDS011;39546;45.534;12.048;2022-11-04T03:41:51;17.10;;;12.20;;
53642;SDS011;39546;45.534;12.048;2022-11-04T03:47:57;16.75;;;11.95;;
53642;SDS011;39546;45.534;12.048;2022-11-04T03:53:59;10.52;;;7.55;;
53642;SDS011;39546;45.534;12.048;2022-11-04T04:00:04;21.98;;;11.48;;
53642;SDS011;39546;45.534;12.048;2022-11-04T04:06:37;17.67;;;9.50;;
53642;SDS011;39546;45.534;12.048;2022-11-04T04:12:40;14.32;;;7.50;;
53642;SDS011;39546;45.534;12.048;2022-11-04T04:18:45;19.17;;;11.65;;
53642;SDS011;39546;45.534;12.048;2022-11-04T04:24:55;19.23;;;8.30;;
53642;SDS011;39546;45.534;12.048;2022-11-04T04:31:19;8.10;;;5.65;;
53642;SDS011;39546;45.534;12.048;2022-11-04T04:37:59;18.33;;;10.23;;
53642;SDS011;39546;45.534;12.048;2022-11-04T04:44:23;14.63;;;6.50;;
53642;SDS011;39546;45.534;12.048;2022-11-04T04:50:47;11.65;;;6.78;;
53642;SDS011;39546;45.534;12.048;2022-11-04T04:56:51;8.80;;;6.20;;
53642;SDS011;39546;45.534;12.048;2022-11-04T05:02:53;12.23;;;7.25;;
53642;SDS011;39546;45.534;12.048;2022-11-04T05:08:56;12.10;;;7.47;;
53642;SDS011;39546;45.534;12.048;2022-11-04T05:14:58;11.43;;;6.87;;
53642;SDS011;39546;45.534;12.048;2022-11-04T05:21:10;9.38;;;4.90;;
53642;SDS011;39546;45.534;12.048;2022-11-04T05:27:14;8.88;;;5.50;;
53642;SDS011;39546;45.534;12.048;2022-11-04T05:33:16;8.50;;;4.75;;
53642;SDS011;39546;45.534;12.048;2022-11-04T05:39:18;7.87;;;5.37;;
53642;SDS011;39546;45.534;12.048;2022-11-04T05:45:20;16.62;;;5.65;;
53642;SDS011;39546;45.534;12.048;2022-11-04T05:51:23;8.57;;;4.95;;
53642;SDS011;39546;45.534;12.048;2022-11-04T05:57:27;9.82;;;4.28;;
53642;SDS011;39546;45.534;12.048;2022-11-04T06:03:29;6.03;;;4.25;;
53642;SDS011;39546;45.534;12.048;2022-11-04T06:09:31;10.02;;;5.07;;
53642;SDS011;39546;45.534;12.048;2022-11-04T06:15:39;5.80;;;3.97;;
53642;SDS011;39546;45.534;12.048;2022-11-04T06:21:41;11.27;;;5.53;;
53642;SDS011;39546;45.534;12.048;2022-11-04T06:27:43;12.13;;;5.55;;
53642;SDS011;39546;45.534;12.048;2022-11-04T06:33:46;8.40;;;4.05;;
53642;SDS011;39546;45.534;12.048;2022-11-04T06:39:52;8.45;;;4.35;;
53642;SDS011;39546;45.534;12.048;2022-11-04T06:45:55;15.30;;;4.22;;
53642;SDS011;39546;45.534;12.048;2022-11-04T06:51:58;4.82;;;3.12;;
53642;SDS011;39546;45.534;12.048;2022-11-04T06:58:01;6.47;;;4.43;;
53642;SDS011;39546;45.534;12.048;2022-11-04T07:04:03;9.07;;;4.55;;
53642;SDS011;39546;45.534;12.048;2022-11-04T07:10:06;6.12;;;3.80;;
53642;SDS011;39546;45.534;12.048;2022-11-04T07:16:08;8.32;;;4.07;;
53642;SDS011;39546;45.534;12.048;2022-11-04T07:22:11;5.50;;;3.58;;
53642;SDS011;39546;45.534;12.048;2022-11-04T07:28:13;6.97;;;3.58;;
53642;SDS011;39546;45.534;12.048;2022-11-04T07:34:15;6.53;;;3.55;;
53642;SDS011;39546;45.534;12.048;2022-11-04T07:40:29;8.27;;;4.78;;
53642;SDS011;39546;45.534;12.048;2022-11-04T07:46:39;7.15;;;4.00;;
53642;SDS011;39546;45.534;12.048;2022-11-04T07:52:42;7.25;;;4.07;;
53642;SDS011;39546;45.534;12.048;2022-11-04T07:58:44;4.60;;;3.53;;
53642;SDS011;39546;45.534;12.048;2022-11-04T08:04:47;12.37;;;5.72;;
53642;SDS011;39546;45.534;12.048;2022-11-04T08:10:52;14.02;;;7.50;;
53642;SDS011;39546;45.534;12.048;2022-11-04T08:17:11;21.37;;;12.55;;
53642;SDS011;39546;45.534;12.048;2022-11-04T08:23:18;21.42;;;15.23;;
53642;SDS011;39546;45.534;12.048;2022-11-04T08:29:20;20.58;;;16.70;;
53642;SDS011;39546;45.534;12.048;2022-11-04T08:35:28;14.90;;;12.25;;
53642;SDS011;39546;45.534;12.048;2022-11-04T08:41:31;12.02;;;8.50;;
53642;SDS011;39546;45.534;12.048;2022-11-04T08:47:49;11.30;;;5.85;;
53642;SDS011;39546;45.534;12.048;2022-11-04T08:53:51;6.35;;;3.37;;
53642;SDS011;39546;45.534;12.048;2022-11-04T08:59:54;3.72;;;2.25;;
53642;SDS011;39546;45.534;12.048;2022-11-04T09:05:56;3.35;;;2.15;;
53642;SDS011;39546;45.534;12.048;2022-11-04T09:12:07;2.47;;;1.65;;
53642;SDS011;39546;45.534;12.048;2022-11-04T09:18:10;2.37;;;1.70;;
53642;SDS011;39546;45.534;12.048;2022-11-04T09:24:13;1.70;;;1.00;;
53642;SDS011;39546;45.534;12.048;2022-11-04T09:30:16;1.37;;;1.23;;
53642;SDS011;39546;45.534;12.048;2022-11-04T09:36:38;0.80;;;0.80;;
53642;SDS011;39546;45.534;12.048;2022-11-04T09:42:51;1.10;;;1.00;;
53642;SDS011;39546;45.534;12.048;2022-11-04T09:49:04;1.37;;;1.25;;
53642;SDS011;39546;45.534;12.048;2022-11-04T10:20:30;1.42;;;0.95;;
53642;SDS011;39546;45.534;12.048;2022-11-04T10:26:45;0.80;;;0.80;;
53642;SDS011;39546;45.534;12.048;2022-11-04T10:45:19;1.90;;;1.15;;
53642;SDS011;39546;45.534;12.048;2022-11-04T10:51:28;1.33;;;0.85;;
53642;SDS011;39546;45.534;12.048;2022-11-04T10:57:30;1.23;;;0.95;;
53642;SDS011;39546;45.534;12.048;2022-11-04T11:03:33;0.68;;;0.68;;
53642;SDS011;39546;45.534;12.048;2022-11-04T11:09:36;2.33;;;1.42;;
53642;SDS011;39546;45.534;12.048;2022-11-04T11:15:46;9.70;;;1.05;;
53642;SDS011;39546;45.534;12.048;2022-11-04T11:34:04;1.87;;;1.70;;
53642;SDS011;39546;45.534;12.048;2022-11-04T11:40:22;1.33;;;1.08;;
53642;SDS011;39546;45.534;12.048;2022-11-04T11:46:32;1.62;;;1.20;;
53642;SDS011;39546;45.534;12.048;2022-11-04T11:52:39;2.90;;;1.00;;
53642;SDS011;39546;45.534;12.048;2022-11-04T12:04:47;1.80;;;1.00;;
53642;SDS011;39546;45.534;12.048;2022-11-04T12:29:38;1.27;;;1.00;;
53642;SDS011;39546;45.534;12.048;2022-11-04T12:49:06;1.90;;;1.52;;
53642;SDS011;39546;45.534;12.048;2022-11-04T13:01:51;2.37;;;1.23;;
53642;SDS011;39546;45.534;12.048;2022-11-04T13:08:08;2.55;;;1.98;;
53642;SDS011;39546;45.534;12.048;2022-11-04T13:14:22;3.50;;;2.00;;
53642;SDS011;39546;45.534;12.048;2022-11-04T13:26:35;6.15;;;1.52;;
53642;SDS011;39546;45.534;12.048;2022-11-04T13:32:39;2.92;;;1.60;;
53642;SDS011;39546;45.534;12.048;2022-11-04T13:38:58;2.15;;;1.52;;
53642;SDS011;39546;45.534;12.048;2022-11-04T13:45:25;4.50;;;1.60;;
53642;SDS011;39546;45.534;12.048;2022-11-04T13:51:33;1.15;;;0.80;;
53642;SDS011;39546;45.534;12.048;2022-11-04T13:57:50;0.80;;;0.80;;
53642;SDS011;39546;45.534;12.048;2022-11-04T14:16:38;2.45;;;1.40;;
53642;SDS011;39546;45.534;12.048;2022-11-04T14:28:45;1.20;;;0.85;;
53642;SDS011;39546;45.534;12.048;2022-11-04T14:35:04;2.30;;;1.15;;
53642;SDS011;39546;45.534;12.048;2022-11-04T14:47:28;4.57;;;2.33;;
53642;SDS011;39546;45.534;12.048;2022-11-04T14:53:35;7.03;;;2.08;;
53642;SDS011;39546;45.534;12.048;2022-11-04T14:59:38;2.50;;;1.37;;
53642;SDS011;39546;45.534;12.048;2022-11-04T15:05:45;3.50;;;1.87;;
53642;SDS011;39546;45.534;12.048;2022-11-04T15:11:57;0.75;;;0.75;;
53642;SDS011;39546;45.534;12.048;2022-11-04T15:18:26;1.52;;;1.20;;
53642;SDS011;39546;45.534;12.048;2022-11-04T15:24:29;1.60;;;0.90;;
53642;SDS011;39546;45.534;12.048;2022-11-04T15:30:31;2.80;;;1.92;;
53642;SDS011;39546;45.534;12.048;2022-11-04T15:37:03;1.85;;;1.33;;
53642;SDS011;39546;45.534;12.048;2022-11-04T15:43:06;1.25;;;1.00;;
53642;SDS011;39546;45.534;12.048;2022-11-04T15:49:17;1.30;;;0.88;;
53642;SDS011;39546;45.534;12.048;2022-11-04T15:55:22;0.77;;;0.77;;
53642;SDS011;39546;45.534;12.048;2022-11-04T16:01:26;0.77;;;0.77;;
53642;SDS011;39546;45.534;12.048;2022-11-04T16:07:47;1.42;;;1.10;;
53642;SDS011;39546;45.534;12.048;2022-11-04T16:13:51;1.40;;;1.23;;
53642;SDS011;39546;45.534;12.048;2022-11-04T16:19:55;3.30;;;1.80;;
53642;SDS011;39546;45.534;12.048;2022-11-04T16:26:00;4.00;;;1.83;;
53642;SDS011;39546;45.534;12.048;2022-11-04T16:38:46;6.45;;;3.42;;
53642;SDS011;39546;45.534;12.048;2022-11-04T16:44:55;6.80;;;2.65;;
53642;SDS011;39546;45.534;12.048;2022-11-04T16:51:02;7.90;;;3.72;;
53642;SDS011;39546;45.534;12.048;2022-11-04T16:57:05;6.70;;;4.32;;
53642;SDS011;39546;45.534;12.048;2022-11-04T17:03:16;7.95;;;3.62;;
53642;SDS011;39546;45.534;12.048;2022-11-04T17:09:23;5.57;;;2.85;;
53642;SDS011;39546;45.534;12.048;2022-11-04T17:15:26;6.68;;;2.87;;
53642;SDS011;39546;45.534;12.048;2022-11-04T17:21:29;5.72;;;2.30;;
53642;SDS011;39546;45.534;12.048;2022-11-04T17:27:31;4.03;;;2.20;;
53642;SDS011;39546;45.534;12.048;2022-11-04T17:33:33;3.80;;;2.35;;
53642;SDS011;39546;45.534;12.048;2022-11-04T17:39:35;2.72;;;1.73;;
53642;SDS011;39546;45.534;12.048;2022-11-04T17:45:38;3.83;;;2.22;;
53642;SDS011;39546;45.534;12.048;2022-11-04T17:51:43;2.60;;;1.77;;
53642;SDS011;39546;45.534;12.048;2022-11-04T17:57:46;3.05;;;2.15;;
53642;SDS011;39546;45.534;12.048;2022-11-04T18:03:49;4.30;;;2.58;;
53642;SDS011;39546;45.534;12.048;2022-11-04T18:09:52;6.65;;;3.83;;
53642;SDS011;39546;45.534;12.048;2022-11-04T18:15:55;7.57;;;4.22;;
53642;SDS011;39546;45.534;12.048;2022-11-04T18:21:57;6.10;;;3.75;;
53642;SDS011;39546;45.534;12.048;2022-11-04T18:27:59;7.62;;;3.12;;
53642;SDS011;39546;45.534;12.048;2022-11-04T18:34:02;5.15;;;3.10;;
53642;SDS011;39546;45.534;12.048;2022-11-04T18:40:05;6.03;;;3.72;;
53642;SDS011;39546;45.534;12.048;2022-11-04T18:46:08;3.60;;;2.72;;
53642;SDS011;39546;45.534;12.048;2022-11-04T18:52:33;4.70;;;2.80;;
53642;SDS011;39546;45.534;12.048;2022-11-04T18:58:36;4.30;;;3.62;;
53642;SDS011;39546;45.534;12.048;2022-11-04T19:04:39;5.43;;;3.45;;
53642;SDS011;39546;45.534;12.048;2022-11-04T19:10:41;8.57;;;3.35;;
53642;SDS011;39546;45.534;12.048;2022-11-04T19:16:43;5.80;;;3.33;;
53642;SDS011;39546;45.534;12.048;2022-11-04T19:22:45;3.75;;;2.85;;
53642;SDS011;39546;45.534;12.048;2022-11-04T19:28:47;4.60;;;3.50;;
53642;SDS011;39546;45.534;12.048;2022-11-04T19:34:50;5.87;;;4.05;;
53642;SDS011;39546;45.534;12.048;2022-11-04T19:40:52;4.82;;;3.53;;
53642;SDS011;39546;45.534;12.048;2022-11-04T19:46:55;4.82;;;2.80;;
53642;SDS011;39546;45.534;12.048;2022-11-04T19:52:57;3.00;;;2.58;;
53642;SDS011;39546;45.534;12.048;2022-11-04T19:58:59;3.53;;;2.55;;
53642;SDS011;39546;45.534;12.048;2022-11-04T20:05:02;5.62;;;3.75;;
53642;SDS011;39546;45.534;12.048;2022-11-04T20:11:05;5.53;;;3.12;;
53642;SDS011;39546;45.534;12.048;2022-11-04T20:17:09;3.33;;;2.30;;
53642;SDS011;39546;45.534;12.048;2022-11-04T20:23:12;5.43;;;3.42;;
53642;SDS011;39546;45.534;12.048;2022-11-04T20:29:14;6.37;;;4.00;;
53642;SDS011;39546;45.534;12.048;2022-11-04T20:35:16;4.72;;;3.12;;
53642;SDS011;39546;45.534;12.048;2022-11-04T20:41:20;4.25;;;3.50;;
53642;SDS011;39546;45.534;12.048;2022-11-04T20:47:22;4.78;;;2.83;;
53642;SDS011;39546;45.534;12.048;2022-11-04T20:53:24;5.05;;;3.55;;
53642;SDS011;39546;45.534;12.048;2022-11-04T20:59:26;4.82;;;3.45;;
53642;SDS011;39546;45.534;12.048;2022-11-04T21:05:28;5.03;;;3.70;;
53642;SDS011;39546;45.534;12.048;2022-11-04T21:11:31;4.82;;;3.78;;
53642;SDS011;39546;45.534;12.048;2022-11-04T21:17:36;4.68;;;3.67;;
53642;SDS011;39546;45.534;12.048;2022-11-04T21:23:38;5.55;;;4.37;;
53642;SDS011;39546;45.534;12.048;2022-11-04T21:36:04;4.70;;;3.50;;
53642;SDS011;39546;45.534;12.048;2022-11-04T21:42:08;6.85;;;3.45;;
53642;SDS011;39546;45.534;12.048;2022-11-04T21:48:10;3.65;;;3.25;;
53642;SDS011;39546;45.534;12.048;2022-11-04T21:54:12;3.78;;;2.90;;
53642;SDS011;39546;45.534;12.048;2022-11-04T22:00:14;6.60;;;3.47;;
53642;SDS011;39546;45.534;12.048;2022-11-04T22:06:20;4.47;;;3.22;;
53642;SDS011;39546;45.534;12.048;2022-11-04T22:12:23;6.18;;;2.78;;
53642;SDS011;39546;45.534;12.048;2022-11-04T22:18:25;3.90;;;2.58;;
53642;SDS011;39546;45.534;12.048;2022-11-04T22:24:32;4.22;;;3.05;;
53642;SDS011;39546;45.534;12.048;2022-11-04T22:30:34;3.03;;;2.30;;
53642;SDS011;39546;45.534;12.048;2022-11-04T22:36:37;5.22;;;2.20;;
53642;SDS011;39546;45.534;12.048;2022-11-04T22:42:39;4.72;;;3.22;;
53642;SDS011;39546;45.534;12.048;2022-11-04T22:48:43;4.25;;;2.78;;
53642;SDS011;39546;45.534;12.048;2022-11-04T22:54:45;5.12;;;4.07;;
53642;SDS011;39546;45.534;12.048;2022-11-04T23:00:52;4.35;;;3.17;;
53642;SDS011;39546;45.534;12.048;2022-11-04T23:06:59;4.07;;;3.00;;
53642;SDS011;39546;45.534;12.048;2022-11-04T23:13:01;3.60;;;2.55;;
53642;SDS011;39546;45.534;12.048;2022-11-04T23:19:22;5.12;;;3.40;;
53642;SDS011;39546;45.534;12.048;2022-11-04T23:25:24;6.55;;;3.35;;
53642;SDS011;39546;45.534;12.048;2022-11-04T23:31:26;3.00;;;2.58;;
53642;SDS011;39546;45.534;12.048;2022-11-04T23:37:31;5.28;;;3.17;;
53642;SDS011;39546;45.534;12.048;2022-11-04T23:43:33;4.93;;;3.28;;
53642;SDS011;39546;45.534;12.048;2022-11-04T23:49:36;4.05;;;3.15;;
53642;SDS011;39546;45.534;12.048;2022-11-04T23:55:56;5.00;;;2.97;;
